sensor_id;sensor_type;location;lat;lon;timestamp;pressure;altitude;pressure_sealevel;temperature;humidity
23170;BME280;11753;43.144;24.714;2023-06-14T00:01:00;99317.34;;;17.06;100.00
23170;BME280;11753;43.144;24.714;2023-06-14T00:02:03;99324.28;;;16.87;100.00
23170;BME280;11753;43.144;24.714;2023-06-14T00:03:04;99329.19;;;17.03;100.00
23170;BME280;11753;43.144;24.714;2023-06-14T00:04:05;99326.31;;;16.98;100.00
23170;BME280;11753;43.144;24.714;2023-06-14T00:05:09;99325.94;;;17.08;100.00
23170;BME280;11753;43.144;24.714;2023-06-14T00:06:13;99331.66;;;17.12;100.00
23170;BME280;11753;43.144;24.714;2023-06-14T00:07:14;99322.06;;;17.11;100.00
23170;BME280;11753;43.144;24.714;2023-06-14T00:08:17;99318.56;;;17.03;100.00
23170;BME280;11753;43.144;24.714;2023-06-14T00:09:19;99317.75;;;17.03;100.00
23170;BME280;11753;43.144;24.714;2023-06-14T00:10:20;99326.13;;;17.06;100.00
23170;BME280;11753;43.144;24.714;2023-06-14T00:11:21;99322.63;;;16.93;100.00
23170;BME280;11753;43.144;24.714;2023-06-14T00:12:22;99319.97;;;16.86;100.00
23170;BME280;11753;43.144;24.714;2023-06-14T00:13:24;99317.50;;;16.91;100.00
23170;BME280;11753;43.144;24.714;2023-06-14T00:14:25;99322.19;;;16.83;100.00
23170;BME280;11753;43.144;24.714;2023-06-14T00:15:27;99316.28;;;16.81;100.00
23170;BME280;11753;43.144;24.714;2023-06-14T00:16:28;99322.00;;;16.84;100.00
23170;BME280;11753;43.144;24.714;2023-06-14T00:17:29;99307.47;;;16.80;100.00
23170;BME280;11753;43.144;24.714;2023-06-14T00:18:30;99318.72;;;16.82;100.00
23170;BME280;11753;43.144;24.714;2023-06-14T00:19:31;99315.88;;;16.90;100.00
23170;BME280;11753;43.144;24.714;2023-06-14T00:20:35;99315.28;;;16.95;100.00
23170;BME280;11753;43.144;24.714;2023-06-14T00:21:37;99312.84;;;16.93;100.00
23170;BME280;11753;43.144;24.714;2023-06-14T00:22:39;99311.59;;;16.89;100.00
23170;BME280;11753;43.144;24.714;2023-06-14T00:23:39;99316.09;;;16.95;100.00
23170;BME280;11753;43.144;24.714;2023-06-14T00:24:40;99313.63;;;16.87;100.00
23170;BME280;11753;43.144;24.714;2023-06-14T00:25:40;99313.22;;;16.90;100.00
23170;BME280;11753;43.144;24.714;2023-06-14T00:26:41;99306.50;;;16.94;100.00
23170;BME280;11753;43.144;24.714;2023-06-14T00:27:43;99311.63;;;17.02;100.00
23170;BME280;11753;43.144;24.714;2023-06-14T00:28:45;99308.75;;;17.04;100.00
23170;BME280;11753;43.144;24.714;2023-06-14T00:29:45;99306.31;;;17.09;100.00
23170;BME280;11753;43.144;24.714;2023-06-14T00:30:46;99309.38;;;17.13;100.00
23170;BME280;11753;43.144;24.714;2023-06-14T00:31:47;99309.16;;;17.14;100.00
23170;BME280;11753;43.144;24.714;2023-06-14T00:32:48;99310.84;;;17.22;100.00
23170;BME280;11753;43.144;24.714;2023-06-14T00:33:48;99311.63;;;17.16;100.00
23170;BME280;11753;43.144;24.714;2023-06-14T00:34:49;99309.59;;;17.24;100.00
23170;BME280;11753;43.144;24.714;2023-06-14T00:35:50;99300.59;;;17.25;100.00
23170;BME280;11753;43.144;24.714;2023-06-14T00:36:54;99299.78;;;17.25;100.00
23170;BME280;11753;43.144;24.714;2023-06-14T00:37:55;99306.94;;;17.31;100.00
23170;BME280;11753;43.144;24.714;2023-06-14T00:38:56;99294.44;;;17.31;100.00
23170;BME280;11753;43.144;24.714;2023-06-14T00:39:57;99295.66;;;17.36;100.00
23170;BME280;11753;43.144;24.714;2023-06-14T00:40:58;99292.41;;;17.40;100.00
23170;BME280;11753;43.144;24.714;2023-06-14T00:41:59;99294.25;;;17.46;100.00
23170;BME280;11753;43.144;24.714;2023-06-14T00:43:00;99283.59;;;17.46;100.00
23170;BME280;11753;43.144;24.714;2023-06-14T00:44:01;99276.84;;;17.50;100.00
23170;BME280;11753;43.144;24.714;2023-06-14T00:45:02;99285.44;;;17.52;100.00
23170;BME280;11753;43.144;24.714;2023-06-14T00:46:03;99275.19;;;17.49;100.00
23170;BME280;11753;43.144;24.714;2023-06-14T00:47:04;99277.25;;;17.60;100.00
23170;BME280;11753;43.144;24.714;2023-06-14T00:48:05;99288.28;;;17.64;100.00
23170;BME280;11753;43.144;24.714;2023-06-14T00:49:08;99275.38;;;17.68;100.00
23170;BME280;11753;43.144;24.714;2023-06-14T00:50:10;99278.47;;;17.71;100.00
23170;BME280;11753;43.144;24.714;2023-06-14T00:51:11;99280.53;;;17.76;100.00
23170;BME280;11753;43.144;24.714;2023-06-14T00:52:13;99273.56;;;17.81;100.00
23170;BME280;11753;43.144;24.714;2023-06-14T00:53:16;99276.81;;;17.83;100.00
23170;BME280;11753;43.144;24.714;2023-06-14T00:54:20;99277.63;;;17.84;100.00
23170;BME280;11753;43.144;24.714;2023-06-14T00:55:21;99275.59;;;17.86;100.00
23170;BME280;11753;43.144;24.714;2023-06-14T00:56:23;99271.91;;;17.87;100.00
23170;BME280;11753;43.144;24.714;2023-06-14T00:57:24;99272.72;;;17.87;100.00
23170;BME280;11753;43.144;24.714;2023-06-14T00:58:26;99273.94;;;17.85;100.00
23170;BME280;11753;43.144;24.714;2023-06-14T00:59:27;99266.59;;;17.87;100.00
23170;BME280;11753;43.144;24.714;2023-06-14T01:00:27;99266.97;;;17.91;100.00
23170;BME280;11753;43.144;24.714;2023-06-14T01:01:30;99273.75;;;17.93;100.00
23170;BME280;11753;43.144;24.714;2023-06-14T01:02:33;99268.19;;;17.95;100.00
23170;BME280;11753;43.144;24.714;2023-06-14T01:03:34;99266.13;;;17.97;100.00
23170;BME280;11753;43.144;24.714;2023-06-14T01:04:35;99260.00;;;17.96;100.00
23170;BME280;11753;43.144;24.714;2023-06-14T01:05:36;99258.97;;;17.97;100.00
23170;BME280;11753;43.144;24.714;2023-06-14T01:06:45;99263.25;;;17.98;100.00
23170;BME280;11753;43.144;24.714;2023-06-14T01:08:24;99268.59;;;17.98;100.00
23170;BME280;11753;43.144;24.714;2023-06-14T01:10:47;99271.47;;;17.97;100.00
23170;BME280;11753;43.144;24.714;2023-06-14T01:12:13;99272.72;;;17.94;100.00
23170;BME280;11753;43.144;24.714;2023-06-14T01:13:49;99273.53;;;17.88;100.00
23170;BME280;11753;43.144;24.714;2023-06-14T01:14:53;99268.66;;;17.72;100.00
23170;BME280;11753;43.144;24.714;2023-06-14T01:15:55;99273.53;;;17.68;100.00
23170;BME280;11753;43.144;24.714;2023-06-14T01:16:58;99273.53;;;17.68;100.00
23170;BME280;11753;43.144;24.714;2023-06-14T01:18:01;99264.97;;;17.73;100.00
23170;BME280;11753;43.144;24.714;2023-06-14T01:19:05;99264.53;;;17.63;100.00
23170;BME280;11753;43.144;24.714;2023-06-14T01:20:12;99270.28;;;17.59;100.00
23170;BME280;11753;43.144;24.714;2023-06-14T01:21:25;99263.50;;;17.57;100.00
23170;BME280;11753;43.144;24.714;2023-06-14T01:22:28;99269.03;;;17.62;100.00
23170;BME280;11753;43.144;24.714;2023-06-14T01:23:30;99270.28;;;17.66;100.00
23170;BME280;11753;43.144;24.714;2023-06-14T01:24:32;99267.19;;;17.69;100.00
23170;BME280;11753;43.144;24.714;2023-06-14T01:25:35;99268.66;;;17.58;100.00
23170;BME280;11753;43.144;24.714;2023-06-14T01:26:37;99273.56;;;17.61;100.00
23170;BME280;11753;43.144;24.714;2023-06-14T01:27:39;99269.69;;;17.57;100.00
23170;BME280;11753;43.144;24.714;2023-06-14T01:28:40;99262.53;;;17.58;100.00
23170;BME280;11753;43.144;24.714;2023-06-14T01:29:41;99272.13;;;17.52;100.00
23170;BME280;11753;43.144;24.714;2023-06-14T01:30:52;99260.03;;;17.56;100.00
23170;BME280;11753;43.144;24.714;2023-06-14T01:31:57;99272.75;;;17.41;100.00
23170;BME280;11753;43.144;24.714;2023-06-14T01:32:57;99264.16;;;17.46;100.00
23170;BME280;11753;43.144;24.714;2023-06-14T01:33:58;99265.38;;;17.50;100.00
23170;BME280;11753;43.144;24.714;2023-06-14T01:34:59;99269.69;;;17.44;100.00
23170;BME280;11753;43.144;24.714;2023-06-14T01:36:00;99267.63;;;17.46;100.00
23170;BME280;11753;43.144;24.714;2023-06-14T01:37:03;99269.28;;;17.47;100.00
23170;BME280;11753;43.144;24.714;2023-06-14T01:38:06;99267.84;;;17.51;100.00
23170;BME280;11753;43.144;24.714;2023-06-14T01:39:07;99274.81;;;17.52;100.00
23170;BME280;11753;43.144;24.714;2023-06-14T01:40:12;99275.19;;;17.56;100.00
23170;BME280;11753;43.144;24.714;2023-06-14T01:41:13;99276.03;;;17.43;100.00
23170;BME280;11753;43.144;24.714;2023-06-14T01:42:16;99276.44;;;17.27;100.00
23170;BME280;11753;43.144;24.714;2023-06-14T01:43:18;99277.25;;;17.34;100.00
23170;BME280;11753;43.144;24.714;2023-06-14T01:44:20;99283.81;;;17.38;100.00
23170;BME280;11753;43.144;24.714;2023-06-14T01:45:21;99271.53;;;17.37;100.00
23170;BME280;11753;43.144;24.714;2023-06-14T01:46:23;99276.88;;;17.37;100.00
23170;BME280;11753;43.144;24.714;2023-06-14T01:47:24;99273.78;;;17.40;100.00
23170;BME280;11753;43.144;24.714;2023-06-14T01:48:26;99283.81;;;17.38;100.00
23170;BME280;11753;43.144;24.714;2023-06-14T01:49:27;99269.47;;;17.39;100.00
23170;BME280;11753;43.144;24.714;2023-06-14T01:50:29;99275.22;;;17.36;100.00
23170;BME280;11753;43.144;24.714;2023-06-14T01:51:30;99274.00;;;17.39;100.00
23170;BME280;11753;43.144;24.714;2023-06-14T01:52:31;99270.72;;;17.37;100.00
23170;BME280;11753;43.144;24.714;2023-06-14T01:53:32;99278.06;;;17.41;100.00
23170;BME280;11753;43.144;24.714;2023-06-14T01:54:33;99277.47;;;17.39;100.00
23170;BME280;11753;43.144;24.714;2023-06-14T01:55:34;99279.31;;;17.45;100.00
23170;BME280;11753;43.144;24.714;2023-06-14T01:56:37;99275.63;;;17.46;100.00
23170;BME280;11753;43.144;24.714;2023-06-14T01:57:38;99270.91;;;17.48;100.00
23170;BME280;11753;43.144;24.714;2023-06-14T01:58:39;99274.81;;;17.39;100.00
23170;BME280;11753;43.144;24.714;2023-06-14T01:59:40;99274.81;;;17.39;100.00
23170;BME280;11753;43.144;24.714;2023-06-14T02:00:41;99278.72;;;17.37;100.00
23170;BME280;11753;43.144;24.714;2023-06-14T02:01:43;99275.00;;;17.24;100.00
23170;BME280;11753;43.144;24.714;2023-06-14T02:02:45;99274.00;;;17.25;100.00
23170;BME280;11753;43.144;24.714;2023-06-14T02:03:46;99277.28;;;17.08;100.00
23170;BME280;11753;43.144;24.714;2023-06-14T02:04:46;99277.25;;;17.01;100.00
23170;BME280;11753;43.144;24.714;2023-06-14T02:05:47;99277.66;;;17.04;100.00
23170;BME280;11753;43.144;24.714;2023-06-14T02:06:48;99283.19;;;17.10;100.00
23170;BME280;11753;43.144;24.714;2023-06-14T02:07:48;99286.47;;;17.12;100.00
23170;BME280;11753;43.144;24.714;2023-06-14T02:08:51;99277.66;;;17.11;100.00
23170;BME280;11753;43.144;24.714;2023-06-14T02:09:52;99285.03;;;17.16;100.00
23170;BME280;11753;43.144;24.714;2023-06-14T02:10:53;99284.00;;;17.03;100.00
23170;BME280;11753;43.144;24.714;2023-06-14T02:11:53;99284.59;;;17.05;100.00
23170;BME280;11753;43.144;24.714;2023-06-14T02:12:54;99289.72;;;17.07;100.00
23170;BME280;11753;43.144;24.714;2023-06-14T02:13:56;99281.75;;;17.00;100.00
23170;BME280;11753;43.144;24.714;2023-06-14T02:14:57;99292.16;;;16.95;100.00
23170;BME280;11753;43.144;24.714;2023-06-14T02:15:58;99289.91;;;16.92;100.00
23170;BME280;11753;43.144;24.714;2023-06-14T02:17:00;99289.09;;;16.92;100.00
23170;BME280;11753;43.144;24.714;2023-06-14T02:18:02;99288.91;;;16.93;100.00
23170;BME280;11753;43.144;24.714;2023-06-14T02:19:03;99289.50;;;16.95;100.00
23170;BME280;11753;43.144;24.714;2023-06-14T02:20:05;99293.59;;;17.04;100.00
23170;BME280;11753;43.144;24.714;2023-06-14T02:21:06;99290.13;;;16.97;100.00
23170;BME280;11753;43.144;24.714;2023-06-14T02:22:07;99287.47;;;17.04;100.00
23170;BME280;11753;43.144;24.714;2023-06-14T02:23:08;99288.06;;;16.99;100.00
23170;BME280;11753;43.144;24.714;2023-06-14T02:24:09;99294.84;;;17.02;100.00
23170;BME280;11753;43.144;24.714;2023-06-14T02:25:10;99289.06;;;16.78;100.00
23170;BME280;11753;43.144;24.714;2023-06-14T02:26:13;99295.38;;;16.71;100.00
23170;BME280;11753;43.144;24.714;2023-06-14T02:27:14;99294.38;;;16.72;100.00
23170;BME280;11753;43.144;24.714;2023-06-14T02:28:15;99288.88;;;16.80;100.00
23170;BME280;11753;43.144;24.714;2023-06-14T02:29:16;99296.44;;;16.83;100.00
23170;BME280;11753;43.144;24.714;2023-06-14T02:30:17;99287.22;;;16.86;100.00
23170;BME280;11753;43.144;24.714;2023-06-14T02:31:18;99301.34;;;16.80;100.00
23170;BME280;11753;43.144;24.714;2023-06-14T02:32:19;99294.38;;;16.85;100.00
23170;BME280;11753;43.144;24.714;2023-06-14T02:33:20;99294.00;;;16.88;100.00
23170;BME280;11753;43.144;24.714;2023-06-14T02:34:22;99294.00;;;16.88;100.00
23170;BME280;11753;43.144;24.714;2023-06-14T02:35:23;99296.88;;;16.93;100.00
23170;BME280;11753;43.144;24.714;2023-06-14T02:36:27;99303.22;;;17.05;100.00
23170;BME280;11753;43.144;24.714;2023-06-14T02:37:30;99302.59;;;16.97;100.00
23170;BME280;11753;43.144;24.714;2023-06-14T02:38:31;99299.72;;;16.98;100.00
23170;BME280;11753;43.144;24.714;2023-06-14T02:39:32;99303.41;;;16.97;100.00
23170;BME280;11753;43.144;24.714;2023-06-14T02:40:33;99302.59;;;16.97;100.00
23170;BME280;11753;43.144;24.714;2023-06-14T02:41:34;99300.75;;;16.97;100.00
23170;BME280;11753;43.144;24.714;2023-06-14T02:42:35;99304.69;;;17.08;100.00
23170;BME280;11753;43.144;24.714;2023-06-14T02:43:36;99301.38;;;16.99;100.00
23170;BME280;11753;43.144;24.714;2023-06-14T02:44:38;99298.91;;;16.91;100.00
23170;BME280;11753;43.144;24.714;2023-06-14T02:45:39;99302.19;;;16.93;100.00
23170;BME280;11753;43.144;24.714;2023-06-14T02:46:41;99300.38;;;17.00;100.00
23170;BME280;11753;43.144;24.714;2023-06-14T02:47:45;99299.94;;;16.97;100.00
23170;BME280;11753;43.144;24.714;2023-06-14T02:48:46;99300.75;;;16.91;100.00
23170;BME280;11753;43.144;24.714;2023-06-14T02:49:47;99298.69;;;16.93;100.00
23170;BME280;11753;43.144;24.714;2023-06-14T02:50:48;99307.09;;;16.90;100.00
23170;BME280;11753;43.144;24.714;2023-06-14T02:51:49;99300.97;;;16.96;100.00
23170;BME280;11753;43.144;24.714;2023-06-14T02:52:50;99310.59;;;17.03;100.00
23170;BME280;11753;43.144;24.714;2023-06-14T02:53:51;99309.94;;;16.88;100.00
23170;BME280;11753;43.144;24.714;2023-06-14T02:54:52;99310.78;;;16.95;100.00
23170;BME280;11753;43.144;24.714;2023-06-14T02:55:53;99309.75;;;16.96;100.00
23170;BME280;11753;43.144;24.714;2023-06-14T02:56:56;99316.13;;;17.09;100.00
23170;BME280;11753;43.144;24.714;2023-06-14T02:57:56;99319.81;;;17.08;100.00
23170;BME280;11753;43.144;24.714;2023-06-14T02:58:57;99323.06;;;17.10;100.00
23170;BME280;11753;43.144;24.714;2023-06-14T02:59:59;99328.78;;;17.06;100.00
23170;BME280;11753;43.144;24.714;2023-06-14T03:01:00;99326.34;;;17.12;100.00
23170;BME280;11753;43.144;24.714;2023-06-14T03:02:03;99324.94;;;17.16;100.00
23170;BME280;11753;43.144;24.714;2023-06-14T03:03:04;99323.09;;;17.16;100.00
23170;BME280;11753;43.144;24.714;2023-06-14T03:04:10;99326.78;;;17.22;100.00
23170;BME280;11753;43.144;24.714;2023-06-14T03:05:11;99333.31;;;17.26;100.00
23170;BME280;11753;43.144;24.714;2023-06-14T03:06:13;99338.84;;;17.24;100.00
23170;BME280;11753;43.144;24.714;2023-06-14T03:07:17;99332.50;;;17.19;100.00
23170;BME280;11753;43.144;24.714;2023-06-14T03:08:20;99335.75;;;17.21;100.00
23170;BME280;11753;43.144;24.714;2023-06-14T03:09:21;99334.34;;;17.25;100.00
23170;BME280;11753;43.144;24.714;2023-06-14T03:10:22;99341.91;;;17.28;100.00
23170;BME280;11753;43.144;24.714;2023-06-14T03:11:23;99337.03;;;17.38;100.00
23170;BME280;11753;43.144;24.714;2023-06-14T03:12:24;99331.69;;;17.38;100.00
23170;BME280;11753;43.144;24.714;2023-06-14T03:13:25;99324.75;;;17.37;100.00
23170;BME280;11753;43.144;24.714;2023-06-14T03:14:28;99336.38;;;17.43;100.00
23170;BME280;11753;43.144;24.714;2023-06-14T03:15:30;99329.44;;;17.48;100.00
23170;BME280;11753;43.144;24.714;2023-06-14T03:16:34;99329.22;;;17.50;100.00
23170;BME280;11753;43.144;24.714;2023-06-14T03:17:35;99333.72;;;17.49;100.00
23170;BME280;11753;43.144;24.714;2023-06-14T03:18:39;99334.38;;;17.51;100.00
23170;BME280;11753;43.144;24.714;2023-06-14T03:19:40;99334.75;;;17.55;100.00
23170;BME280;11753;43.144;24.714;2023-06-14T03:20:42;99336.41;;;17.56;100.00
23170;BME280;11753;43.144;24.714;2023-06-14T03:21:43;99335.38;;;17.57;100.00
23170;BME280;11753;43.144;24.714;2023-06-14T03:22:45;99336.59;;;17.61;100.00
23170;BME280;11753;43.144;24.714;2023-06-14T03:23:47;99337.44;;;17.61;100.00
23170;BME280;11753;43.144;24.714;2023-06-14T03:24:49;99339.06;;;17.63;100.00
23170;BME280;11753;43.144;24.714;2023-06-14T03:25:51;99337.84;;;17.65;100.00
23170;BME280;11753;43.144;24.714;2023-06-14T03:26:52;99332.91;;;17.69;100.00
23170;BME280;11753;43.144;24.714;2023-06-14T03:27:56;99334.19;;;17.73;100.00
23170;BME280;11753;43.144;24.714;2023-06-14T03:28:57;99337.03;;;17.71;100.00
23170;BME280;11753;43.144;24.714;2023-06-14T03:29:58;99341.16;;;17.74;100.00
23170;BME280;11753;43.144;24.714;2023-06-14T03:30:59;99344.03;;;17.72;100.00
23170;BME280;11753;43.144;24.714;2023-06-14T03:32:02;99340.31;;;17.73;100.00
23170;BME280;11753;43.144;24.714;2023-06-14T03:33:03;99347.69;;;17.78;100.00
23170;BME280;11753;43.144;24.714;2023-06-14T03:34:05;99344.41;;;17.76;100.00
23170;BME280;11753;43.144;24.714;2023-06-14T03:35:06;99344.00;;;17.79;100.00
23170;BME280;11753;43.144;24.714;2023-06-14T03:36:07;99342.34;;;17.78;100.00
23170;BME280;11753;43.144;24.714;2023-06-14T03:37:08;99343.16;;;17.78;100.00
23170;BME280;11753;43.144;24.714;2023-06-14T03:38:10;99343.59;;;17.75;100.00
23170;BME280;11753;43.144;24.714;2023-06-14T03:39:11;99339.09;;;17.76;100.00
23170;BME280;11753;43.144;24.714;2023-06-14T03:40:13;99347.06;;;17.76;100.00
23170;BME280;11753;43.144;24.714;2023-06-14T03:41:14;99340.31;;;17.80;100.00
23170;BME280;11753;43.144;24.714;2023-06-14T03:42:15;99340.72;;;17.77;100.00
23170;BME280;11753;43.144;24.714;2023-06-14T03:43:16;99336.63;;;17.74;100.00
23170;BME280;11753;43.144;24.714;2023-06-14T03:44:18;99342.78;;;17.75;100.00
23170;BME280;11753;43.144;24.714;2023-06-14T03:45:19;99351.78;;;17.74;100.00
23170;BME280;11753;43.144;24.714;2023-06-14T03:46:20;99348.88;;;17.69;100.00
23170;BME280;11753;43.144;24.714;2023-06-14T03:47:21;99344.38;;;17.69;100.00
23170;BME280;11753;43.144;24.714;2023-06-14T03:48:22;99339.06;;;17.69;100.00
23170;BME280;11753;43.144;24.714;2023-06-14T03:49:23;99350.53;;;17.70;100.00
23170;BME280;11753;43.144;24.714;2023-06-14T03:50:24;99355.44;;;17.66;100.00
23170;BME280;11753;43.144;24.714;2023-06-14T03:51:25;99353.81;;;17.65;100.00
23170;BME280;11753;43.144;24.714;2023-06-14T03:52:30;99354.63;;;17.66;100.00
23170;BME280;11753;43.144;24.714;2023-06-14T03:53:31;99356.25;;;17.67;100.00
23170;BME280;11753;43.144;24.714;2023-06-14T03:54:32;99357.91;;;17.68;100.00
23170;BME280;11753;43.144;24.714;2023-06-14T03:55:33;99352.38;;;17.63;100.00
23170;BME280;11753;43.144;24.714;2023-06-14T03:56:34;99361.97;;;17.64;100.00
23170;BME280;11753;43.144;24.714;2023-06-14T03:57:36;99356.66;;;17.64;100.00
23170;BME280;11753;43.144;24.714;2023-06-14T03:58:37;99350.13;;;17.66;100.00
23170;BME280;11753;43.144;24.714;2023-06-14T03:59:38;99357.50;;;17.71;100.00
23170;BME280;11753;43.144;24.714;2023-06-14T04:00:39;99359.56;;;17.75;100.00
23170;BME280;11753;43.144;24.714;2023-06-14T04:01:40;99359.78;;;17.80;100.00
23170;BME280;11753;43.144;24.714;2023-06-14T04:02:47;99362.22;;;17.82;100.00
23170;BME280;11753;43.144;24.714;2023-06-14T04:03:47;99348.91;;;17.82;100.00
23170;BME280;11753;43.144;24.714;2023-06-14T04:04:49;99358.31;;;17.84;100.00
23170;BME280;11753;43.144;24.714;2023-06-14T04:05:52;99362.00;;;17.90;100.00
23170;BME280;11753;43.144;24.714;2023-06-14T04:06:57;99366.94;;;17.93;100.00
23170;BME280;11753;43.144;24.714;2023-06-14T04:08:01;99369.38;;;17.95;100.00
23170;BME280;11753;43.144;24.714;2023-06-14T04:09:02;99366.50;;;17.96;100.00
23170;BME280;11753;43.144;24.714;2023-06-14T04:10:03;99363.25;;;17.94;100.00
23170;BME280;11753;43.144;24.714;2023-06-14T04:11:04;99359.13;;;17.98;100.00
23170;BME280;11753;43.144;24.714;2023-06-14T04:12:09;99361.78;;;17.98;100.00
23170;BME280;11753;43.144;24.714;2023-06-14T04:13:12;99356.66;;;18.03;100.00
23170;BME280;11753;43.144;24.714;2023-06-14T04:14:13;99358.91;;;18.06;100.00
23170;BME280;11753;43.144;24.714;2023-06-14T04:15:14;99358.28;;;18.04;100.00
23170;BME280;11753;43.144;24.714;2023-06-14T04:16:15;99366.50;;;18.09;100.00
23170;BME280;11753;43.144;24.714;2023-06-14T04:17:16;99364.44;;;18.11;100.00
23170;BME280;11753;43.144;24.714;2023-06-14T04:18:17;99356.84;;;18.15;100.00
23170;BME280;11753;43.144;24.714;2023-06-14T04:19:20;99374.25;;;18.18;100.00
23170;BME280;11753;43.144;24.714;2023-06-14T04:20:20;99357.69;;;18.15;100.00
23170;BME280;11753;43.144;24.714;2023-06-14T04:21:30;99368.50;;;18.21;100.00
23170;BME280;11753;43.144;24.714;2023-06-14T04:22:32;99366.28;;;18.18;100.00
23170;BME280;11753;43.144;24.714;2023-06-14T04:23:34;99364.19;;;18.20;100.00
23170;BME280;11753;43.144;24.714;2023-06-14T04:24:34;99360.50;;;18.21;100.00
23170;BME280;11753;43.144;24.714;2023-06-14T04:25:35;99361.75;;;18.25;100.00
23170;BME280;11753;43.144;24.714;2023-06-14T04:26:36;99370.94;;;18.29;100.00
23170;BME280;11753;43.144;24.714;2023-06-14T04:27:37;99368.91;;;18.31;100.00
23170;BME280;11753;43.144;24.714;2023-06-14T04:28:38;99366.63;;;18.34;100.00
23170;BME280;11753;43.144;24.714;2023-06-14T04:29:41;99368.47;;;18.34;100.00
23170;BME280;11753;43.144;24.714;2023-06-14T04:30:44;99360.91;;;18.31;100.00
23170;BME280;11753;43.144;24.714;2023-06-14T04:31:48;99370.91;;;18.35;100.00
23170;BME280;11753;43.144;24.714;2023-06-14T04:32:50;99369.69;;;18.38;100.00
23170;BME280;11753;43.144;24.714;2023-06-14T04:33:55;99376.66;;;18.39;100.00
23170;BME280;11753;43.144;24.714;2023-06-14T04:34:56;99372.53;;;18.43;100.00
23170;BME280;11753;43.144;24.714;2023-06-14T04:35:57;99371.94;;;18.41;100.00
23170;BME280;11753;43.144;24.714;2023-06-14T04:37:00;99363.72;;;18.42;100.00
23170;BME280;11753;43.144;24.714;2023-06-14T04:38:02;99372.94;;;18.47;100.00
23170;BME280;11753;43.144;24.714;2023-06-14T04:39:05;99377.47;;;18.46;100.00
23170;BME280;11753;43.144;24.714;2023-06-14T04:40:07;99368.44;;;18.40;100.00
23170;BME280;11753;43.144;24.714;2023-06-14T04:41:08;99381.22;;;18.19;100.00
23170;BME280;11753;43.144;24.714;2023-06-14T04:42:12;99367.91;;;18.19;100.00
23170;BME280;11753;43.144;24.714;2023-06-14T04:43:15;99382.03;;;18.12;100.00
23170;BME280;11753;43.144;24.714;2023-06-14T04:44:19;99373.25;;;18.05;100.00
23170;BME280;11753;43.144;24.714;2023-06-14T04:45:24;99383.91;;;18.05;100.00
23170;BME280;11753;43.144;24.714;2023-06-14T04:46:33;99380.63;;;18.03;100.00
23170;BME280;11753;43.144;24.714;2023-06-14T04:47:46;99373.44;;;18.10;100.00
23170;BME280;11753;43.144;24.714;2023-06-14T04:48:47;99384.94;;;18.04;100.00
23170;BME280;11753;43.144;24.714;2023-06-14T04:49:51;99384.53;;;18.07;100.00
23170;BME280;11753;43.144;24.714;2023-06-14T04:50:53;99383.69;;;18.07;100.00
23170;BME280;11753;43.144;24.714;2023-06-14T04:51:54;99382.06;;;18.06;100.00
23170;BME280;11753;43.144;24.714;2023-06-14T04:53:02;99387.38;;;17.99;100.00
23170;BME280;11753;43.144;24.714;2023-06-14T04:54:03;99382.69;;;17.88;100.00
23170;BME280;11753;43.144;24.714;2023-06-14T04:55:05;99385.75;;;17.85;100.00
23170;BME280;11753;43.144;24.714;2023-06-14T04:56:07;99391.94;;;17.79;100.00
23170;BME280;11753;43.144;24.714;2023-06-14T04:57:09;99395.19;;;17.81;100.00
23170;BME280;11753;43.144;24.714;2023-06-14T04:58:14;99394.59;;;17.79;100.00
23170;BME280;11753;43.144;24.714;2023-06-14T04:59:15;99394.78;;;17.77;100.00
23170;BME280;11753;43.144;24.714;2023-06-14T05:00:18;99391.50;;;17.75;100.00
23170;BME280;11753;43.144;24.714;2023-06-14T05:01:20;99406.25;;;17.78;100.00
23170;BME280;11753;43.144;24.714;2023-06-14T05:02:23;99395.59;;;17.71;100.00
23170;BME280;11753;43.144;24.714;2023-06-14T05:03:25;99396.63;;;17.77;100.00
23170;BME280;11753;43.144;24.714;2023-06-14T05:04:26;99391.94;;;17.79;100.00
23170;BME280;11753;43.144;24.714;2023-06-14T05:05:28;99392.31;;;17.82;100.00
23170;BME280;11753;43.144;24.714;2023-06-14T05:06:30;99398.47;;;17.83;100.00
23170;BME280;11753;43.144;24.714;2023-06-14T05:07:31;99399.91;;;17.79;100.00
23170;BME280;11753;43.144;24.714;2023-06-14T05:08:32;99400.75;;;17.86;100.00
23170;BME280;11753;43.144;24.714;2023-06-14T05:09:32;99398.06;;;17.73;100.00
23170;BME280;11753;43.144;24.714;2023-06-14T05:10:34;99402.13;;;17.69;100.00
23170;BME280;11753;43.144;24.714;2023-06-14T05:11:36;99404.56;;;17.70;100.00
23170;BME280;11753;43.144;24.714;2023-06-14T05:12:37;99391.94;;;17.72;100.00
23170;BME280;11753;43.144;24.714;2023-06-14T05:13:38;99397.63;;;17.69;100.00
23170;BME280;11753;43.144;24.714;2023-06-14T05:14:40;99397.25;;;17.72;100.00
23170;BME280;11753;43.144;24.714;2023-06-14T05:15:41;99402.16;;;17.75;100.00
23170;BME280;11753;43.144;24.714;2023-06-14T05:16:43;99405.41;;;17.71;100.00
23170;BME280;11753;43.144;24.714;2023-06-14T05:17:46;99402.75;;;17.77;100.00
23170;BME280;11753;43.144;24.714;2023-06-14T05:18:53;99404.81;;;17.82;100.00
23170;BME280;11753;43.144;24.714;2023-06-14T05:19:54;99402.75;;;17.77;100.00
23170;BME280;11753;43.144;24.714;2023-06-14T05:20:56;99410.34;;;17.87;100.00
23170;BME280;11753;43.144;24.714;2023-06-14T05:21:57;99402.75;;;17.91;100.00
23170;BME280;11753;43.144;24.714;2023-06-14T05:22:58;99402.38;;;17.94;100.00